sensor_id;sensor_type;location;lat;lon;timestamp;temperature;humidity
65034;DHT22;51601;51.356;12.458;2022-10-13T00:00:12;10.10;92.50
65034;DHT22;51601;51.356;12.458;2022-10-13T00:04:27;10.10;92.90
65034;DHT22;51601;51.356;12.458;2022-10-13T00:08:41;10.20;93.10
65034;DHT22;51601;51.356;12.458;2022-10-13T00:12:55;10.30;93.10
65034;DHT22;51601;51.356;12.458;2022-10-13T00:17:09;10.40;93.20
65034;DHT22;51601;51.356;12.458;2022-10-13T00:21:25;10.40;93.00
65034;DHT22;51601;51.356;12.458;2022-10-13T00:25:40;10.50;92.90
65034;DHT22;51601;51.356;12.458;2022-10-13T00:29:54;10.60;92.80
65034;DHT22;51601;51.356;12.458;2022-10-13T00:34:08;10.60;92.60
65034;DHT22;51601;51.356;12.458;2022-10-13T00:38:23;10.70;92.60
65034;DHT22;51601;51.356;12.458;2022-10-13T00:42:40;10.70;92.40
65034;DHT22;51601;51.356;12.458;2022-10-13T00:46:53;10.70;92.20
65034;DHT22;51601;51.356;12.458;2022-10-13T00:51:07;10.60;92.00
65034;DHT22;51601;51.356;12.458;2022-10-13T00:55:26;10.60;92.40
65034;DHT22;51601;51.356;12.458;2022-10-13T00:59:42;10.60;91.90
65034;DHT22;51601;51.356;12.458;2022-10-13T01:03:56;10.60;91.90
65034;DHT22;51601;51.356;12.458;2022-10-13T01:08:10;10.70;92.00
65034;DHT22;51601;51.356;12.458;2022-10-13T01:12:37;10.80;91.80
65034;DHT22;51601;51.356;12.458;2022-10-13T01:16:59;10.90;91.60
65034;DHT22;51601;51.356;12.458;2022-10-13T01:21:23;11.00;91.50
65034;DHT22;51601;51.356;12.458;2022-10-13T01:25:56;11.00;91.20
65034;DHT22;51601;51.356;12.458;2022-10-13T01:30:23;11.10;91.10
65034;DHT22;51601;51.356;12.458;2022-10-13T01:34:41;11.20;90.90
65034;DHT22;51601;51.356;12.458;2022-10-13T01:39:05;11.20;90.90
65034;DHT22;51601;51.356;12.458;2022-10-13T01:43:23;11.20;91.00
65034;DHT22;51601;51.356;12.458;2022-10-13T01:47:40;11.20;91.10
65034;DHT22;51601;51.356;12.458;2022-10-13T01:51:59;11.10;91.10
65034;DHT22;51601;51.356;12.458;2022-10-13T01:56:14;11.10;91.00
65034;DHT22;51601;51.356;12.458;2022-10-13T02:00:34;11.20;90.80
65034;DHT22;51601;51.356;12.458;2022-10-13T02:04:58;11.20;90.60
65034;DHT22;51601;51.356;12.458;2022-10-13T02:09:18;11.10;90.80
65034;DHT22;51601;51.356;12.458;2022-10-13T02:13:35;11.00;91.20
65034;DHT22;51601;51.356;12.458;2022-10-13T02:17:54;10.90;91.30
65034;DHT22;51601;51.356;12.458;2022-10-13T02:22:11;10.80;91.30
65034;DHT22;51601;51.356;12.458;2022-10-13T02:26:25;10.70;91.70
65034;DHT22;51601;51.356;12.458;2022-10-13T02:30:45;10.50;92.40
65034;DHT22;51601;51.356;12.458;2022-10-13T02:34:59;10.40;93.00
65034;DHT22;51601;51.356;12.458;2022-10-13T02:39:17;10.40;93.60
65034;DHT22;51601;51.356;12.458;2022-10-13T02:43:31;10.30;93.90
65034;DHT22;51601;51.356;12.458;2022-10-13T02:47:48;10.30;93.90
65034;DHT22;51601;51.356;12.458;2022-10-13T02:52:02;10.40;94.00
65034;DHT22;51601;51.356;12.458;2022-10-13T02:56:17;10.40;94.00
65034;DHT22;51601;51.356;12.458;2022-10-13T03:00:31;10.50;94.00
65034;DHT22;51601;51.356;12.458;2022-10-13T03:04:46;10.50;93.80
65034;DHT22;51601;51.356;12.458;2022-10-13T03:09:00;10.60;93.70
65034;DHT22;51601;51.356;12.458;2022-10-13T03:13:15;10.70;93.50
65034;DHT22;51601;51.356;12.458;2022-10-13T03:17:29;10.60;93.40
65034;DHT22;51601;51.356;12.458;2022-10-13T03:21:42;10.60;93.50
65034;DHT22;51601;51.356;12.458;2022-10-13T03:25:56;10.60;93.20
65034;DHT22;51601;51.356;12.458;2022-10-13T03:30:12;10.70;92.90
65034;DHT22;51601;51.356;12.458;2022-10-13T03:34:26;10.70;92.70
65034;DHT22;51601;51.356;12.458;2022-10-13T03:38:42;10.60;92.60
65034;DHT22;51601;51.356;12.458;2022-10-13T03:42:56;10.50;92.60
65034;DHT22;51601;51.356;12.458;2022-10-13T03:47:12;10.50;92.90
65034;DHT22;51601;51.356;12.458;2022-10-13T03:51:26;10.40;93.00
65034;DHT22;51601;51.356;12.458;2022-10-13T03:55:40;10.40;93.00
65034;DHT22;51601;51.356;12.458;2022-10-13T03:59:54;10.40;93.00
65034;DHT22;51601;51.356;12.458;2022-10-13T04:04:12;10.30;93.40
65034;DHT22;51601;51.356;12.458;2022-10-13T04:08:27;10.30;93.80
65034;DHT22;51601;51.356;12.458;2022-10-13T04:12:41;10.20;94.10
65034;DHT22;51601;51.356;12.458;2022-10-13T04:16:55;10.20;94.00
65034;DHT22;51601;51.356;12.458;2022-10-13T04:21:13;10.20;94.20
65034;DHT22;51601;51.356;12.458;2022-10-13T04:25:27;10.20;94.20
65034;DHT22;51601;51.356;12.458;2022-10-13T04:29:40;10.20;94.10
65034;DHT22;51601;51.356;12.458;2022-10-13T04:33:54;10.20;94.30
65034;DHT22;51601;51.356;12.458;2022-10-13T04:38:09;10.10;94.30
65034;DHT22;51601;51.356;12.458;2022-10-13T04:42:23;10.10;94.50
65034;DHT22;51601;51.356;12.458;2022-10-13T04:46:37;10.10;94.80
65034;DHT22;51601;51.356;12.458;2022-10-13T04:50:58;10.20;94.90
65034;DHT22;51601;51.356;12.458;2022-10-13T04:55:13;10.30;95.00
65034;DHT22;51601;51.356;12.458;2022-10-13T04:59:28;10.40;94.90
65034;DHT22;51601;51.356;12.458;2022-10-13T05:03:42;10.50;94.80
65034;DHT22;51601;51.356;12.458;2022-10-13T05:07:55;10.70;94.70
65034;DHT22;51601;51.356;12.458;2022-10-13T05:12:10;10.80;94.50
65034;DHT22;51601;51.356;12.458;2022-10-13T05:16:25;10.90;94.30
65034;DHT22;51601;51.356;12.458;2022-10-13T05:20:38;11.00;94.20
65034;DHT22;51601;51.356;12.458;2022-10-13T05:24:52;11.10;94.10
65034;DHT22;51601;51.356;12.458;2022-10-13T05:29:07;11.20;93.90
65034;DHT22;51601;51.356;12.458;2022-10-13T05:33:21;11.30;93.90
65034;DHT22;51601;51.356;12.458;2022-10-13T05:37:35;11.40;93.70
65034;DHT22;51601;51.356;12.458;2022-10-13T05:41:49;11.50;93.60
65034;DHT22;51601;51.356;12.458;2022-10-13T05:46:07;11.60;93.50
65034;DHT22;51601;51.356;12.458;2022-10-13T05:50:21;11.80;93.30
65034;DHT22;51601;51.356;12.458;2022-10-13T05:54:38;11.80;93.50
65034;DHT22;51601;51.356;12.458;2022-10-13T05:58:58;12.00;93.10
65034;DHT22;51601;51.356;12.458;2022-10-13T06:03:18;12.00;92.90
65034;DHT22;51601;51.356;12.458;2022-10-13T06:07:33;12.00;92.80
65034;DHT22;51601;51.356;12.458;2022-10-13T06:11:47;12.10;92.80
65034;DHT22;51601;51.356;12.458;2022-10-13T06:16:01;12.20;92.80
65034;DHT22;51601;51.356;12.458;2022-10-13T06:20:16;12.30;92.80
65034;DHT22;51601;51.356;12.458;2022-10-13T06:24:32;12.40;92.60
65034;DHT22;51601;51.356;12.458;2022-10-13T06:28:48;12.60;92.50
65034;DHT22;51601;51.356;12.458;2022-10-13T06:33:07;12.70;92.20
65034;DHT22;51601;51.356;12.458;2022-10-13T06:37:22;12.70;92.00
65034;DHT22;51601;51.356;12.458;2022-10-13T06:41:39;12.80;92.10
65034;DHT22;51601;51.356;12.458;2022-10-13T06:45:52;13.00;92.30
65034;DHT22;51601;51.356;12.458;2022-10-13T06:50:06;13.30;91.70
65034;DHT22;51601;51.356;12.458;2022-10-13T06:54:21;13.60;91.20
65034;DHT22;51601;51.356;12.458;2022-10-13T06:58:35;14.00;90.70
65034;DHT22;51601;51.356;12.458;2022-10-13T07:02:50;14.80;90.90
65034;DHT22;51601;51.356;12.458;2022-10-13T07:07:04;16.20;90.20
65034;DHT22;51601;51.356;12.458;2022-10-13T07:11:19;17.50;80.90
65034;DHT22;51601;51.356;12.458;2022-10-13T07:15:36;18.30;71.50
65034;DHT22;51601;51.356;12.458;2022-10-13T07:19:50;18.60;68.80
65034;DHT22;51601;51.356;12.458;2022-10-13T07:24:10;18.60;65.60
65034;DHT22;51601;51.356;12.458;2022-10-13T07:28:26;18.50;64.80
65034;DHT22;51601;51.356;12.458;2022-10-13T07:32:40;18.40;64.50
65034;DHT22;51601;51.356;12.458;2022-10-13T07:36:54;18.40;64.90
65034;DHT22;51601;51.356;12.458;2022-10-13T07:41:09;18.80;64.20
65034;DHT22;51601;51.356;12.458;2022-10-13T07:45:25;19.00;62.40
65034;DHT22;51601;51.356;12.458;2022-10-13T07:49:39;19.30;62.10
65034;DHT22;51601;51.356;12.458;2022-10-13T07:53:53;19.40;60.90
65034;DHT22;51601;51.356;12.458;2022-10-13T07:58:07;19.30;61.70
65034;DHT22;51601;51.356;12.458;2022-10-13T08:02:22;19.80;62.40
65034;DHT22;51601;51.356;12.458;2022-10-13T08:06:37;20.90;61.40
65034;DHT22;51601;51.356;12.458;2022-10-13T08:10:53;21.90;59.00
65034;DHT22;51601;51.356;12.458;2022-10-13T08:15:08;22.60;56.30
65034;DHT22;51601;51.356;12.458;2022-10-13T08:19:24;23.00;53.00
65034;DHT22;51601;51.356;12.458;2022-10-13T08:23:38;22.70;52.90
65034;DHT22;51601;51.356;12.458;2022-10-13T08:27:51;22.50;54.50
65034;DHT22;51601;51.356;12.458;2022-10-13T08:32:11;22.80;53.80
65034;DHT22;51601;51.356;12.458;2022-10-13T08:36:26;23.30;52.30
65034;DHT22;51601;51.356;12.458;2022-10-13T08:40:45;23.80;50.60
65034;DHT22;51601;51.356;12.458;2022-10-13T08:45:01;23.60;50.10
65034;DHT22;51601;51.356;12.458;2022-10-13T08:49:35;23.50;50.60
65034;DHT22;51601;51.356;12.458;2022-10-13T08:53:53;23.40;50.10
65034;DHT22;51601;51.356;12.458;2022-10-13T08:58:12;23.20;50.00
65034;DHT22;51601;51.356;12.458;2022-10-13T09:02:30;23.00;50.50
65034;DHT22;51601;51.356;12.458;2022-10-13T09:06:46;22.60;50.70
65034;DHT22;51601;51.356;12.458;2022-10-13T09:11:02;22.20;51.80
65034;DHT22;51601;51.356;12.458;2022-10-13T09:15:16;21.90;53.10
65034;DHT22;51601;51.356;12.458;2022-10-13T09:19:32;22.10;53.30
65034;DHT22;51601;51.356;12.458;2022-10-13T09:23:50;22.10;52.90
65034;DHT22;51601;51.356;12.458;2022-10-13T09:28:14;22.00;52.70
65034;DHT22;51601;51.356;12.458;2022-10-13T09:32:34;21.50;53.70
65034;DHT22;51601;51.356;12.458;2022-10-13T09:37:02;21.20;54.80
65034;DHT22;51601;51.356;12.458;2022-10-13T09:41:19;21.10;55.50
65034;DHT22;51601;51.356;12.458;2022-10-13T09:45:35;21.20;56.20
65034;DHT22;51601;51.356;12.458;2022-10-13T09:50:04;21.50;55.60
65034;DHT22;51601;51.356;12.458;2022-10-13T09:54:32;21.70;54.70
65034;DHT22;51601;51.356;12.458;2022-10-13T09:58:52;21.60;54.80
65034;DHT22;51601;51.356;12.458;2022-10-13T10:03:15;21.60;55.30
65034;DHT22;51601;51.356;12.458;2022-10-13T10:07:31;21.90;54.60
65034;DHT22;51601;51.356;12.458;2022-10-13T10:11:46;22.10;54.00
65034;DHT22;51601;51.356;12.458;2022-10-13T10:16:06;22.20;53.80
65034;DHT22;51601;51.356;12.458;2022-10-13T10:20:35;22.40;53.60
65034;DHT22;51601;51.356;12.458;2022-10-13T10:25:01;22.50;52.80
65034;DHT22;51601;51.356;12.458;2022-10-13T10:29:24;22.20;52.60
65034;DHT22;51601;51.356;12.458;2022-10-13T10:33:45;21.90;52.90
65034;DHT22;51601;51.356;12.458;2022-10-13T10:38:13;21.50;53.50
65034;DHT22;51601;51.356;12.458;2022-10-13T10:42:48;21.20;54.40
65034;DHT22;51601;51.356;12.458;2022-10-13T10:47:08;21.00;55.20
65034;DHT22;51601;51.356;12.458;2022-10-13T10:51:31;20.90;55.70
65034;DHT22;51601;51.356;12.458;2022-10-13T10:55:52;20.80;56.20
65034;DHT22;51601;51.356;12.458;2022-10-13T11:00:12;20.80;56.50
65034;DHT22;51601;51.356;12.458;2022-10-13T11:04:38;20.90;56.30
65034;DHT22;51601;51.356;12.458;2022-10-13T11:08:52;21.00;55.70
65034;DHT22;51601;51.356;12.458;2022-10-13T11:13:26;21.00;55.50
65034;DHT22;51601;51.356;12.458;2022-10-13T11:17:58;21.30;55.20
65034;DHT22;51601;51.356;12.458;2022-10-13T11:22:33;21.40;54.60
65034;DHT22;51601;51.356;12.458;2022-10-13T11:27:18;21.50;53.90
65034;DHT22;51601;51.356;12.458;2022-10-13T11:31:57;21.30;53.20
65034;DHT22;51601;51.356;12.458;2022-10-13T11:36:38;20.60;54.30
65034;DHT22;51601;51.356;12.458;2022-10-13T11:41:23;20.20;55.60
65034;DHT22;51601;51.356;12.458;2022-10-13T11:46:16;20.00;56.20
65034;DHT22;51601;51.356;12.458;2022-10-13T11:51:06;20.10;56.60
65034;DHT22;51601;51.356;12.458;2022-10-13T11:55:50;20.20;56.70
65034;DHT22;51601;51.356;12.458;2022-10-13T12:00:24;20.60;56.30
65034;DHT22;51601;51.356;12.458;2022-10-13T12:05:06;20.90;54.90
65034;DHT22;51601;51.356;12.458;2022-10-13T12:09:50;20.90;54.60
65034;DHT22;51601;51.356;12.458;2022-10-13T12:14:31;20.80;54.90
65034;DHT22;51601;51.356;12.458;2022-10-13T12:19:06;20.60;55.10
65034;DHT22;51601;51.356;12.458;2022-10-13T12:23:42;20.40;55.60
65034;DHT22;51601;51.356;12.458;2022-10-13T12:28:18;20.20;56.30
65034;DHT22;51601;51.356;12.458;2022-10-13T12:32:56;20.10;56.70
65034;DHT22;51601;51.356;12.458;2022-10-13T12:37:32;20.20;56.80
65034;DHT22;51601;51.356;12.458;2022-10-13T12:42:10;20.40;56.50
65034;DHT22;51601;51.356;12.458;2022-10-13T12:46:49;20.70;55.90
65034;DHT22;51601;51.356;12.458;2022-10-13T12:51:25;20.60;55.10
65034;DHT22;51601;51.356;12.458;2022-10-13T12:56:16;20.40;55.30
65034;DHT22;51601;51.356;12.458;2022-10-13T13:00:59;20.30;55.10
65034;DHT22;51601;51.356;12.458;2022-10-13T13:05:37;20.20;55.00
65034;DHT22;51601;51.356;12.458;2022-10-13T13:10:17;20.00;55.40
65034;DHT22;51601;51.356;12.458;2022-10-13T13:14:52;19.70;56.40
65034;DHT22;51601;51.356;12.458;2022-10-13T13:19:30;19.40;57.20
65034;DHT22;51601;51.356;12.458;2022-10-13T13:24:05;19.10;58.00
65034;DHT22;51601;51.356;12.458;2022-10-13T13:28:59;19.10;58.40
65034;DHT22;51601;51.356;12.458;2022-10-13T13:33:33;19.20;58.40
65034;DHT22;51601;51.356;12.458;2022-10-13T13:38:09;19.30;57.40
65034;DHT22;51601;51.356;12.458;2022-10-13T13:42:44;19.40;57.30
65034;DHT22;51601;51.356;12.458;2022-10-13T13:47:20;19.60;57.30
65034;DHT22;51601;51.356;12.458;2022-10-13T13:51:54;20.00;56.80
65034;DHT22;51601;51.356;12.458;2022-10-13T13:56:28;20.30;54.90
65034;DHT22;51601;51.356;12.458;2022-10-13T14:01:04;20.20;54.60
65034;DHT22;51601;51.356;12.458;2022-10-13T14:05:38;19.90;54.90
65034;DHT22;51601;51.356;12.458;2022-10-13T14:10:13;19.70;55.80
65034;DHT22;51601;51.356;12.458;2022-10-13T14:14:52;19.60;56.20
65034;DHT22;51601;51.356;12.458;2022-10-13T14:19:28;19.60;56.00
65034;DHT22;51601;51.356;12.458;2022-10-13T14:24:03;19.60;55.60
65034;DHT22;51601;51.356;12.458;2022-10-13T14:28:39;19.60;55.50
65034;DHT22;51601;51.356;12.458;2022-10-13T14:33:13;19.50;56.10
65034;DHT22;51601;51.356;12.458;2022-10-13T14:37:52;19.30;55.90
65034;DHT22;51601;51.356;12.458;2022-10-13T14:42:26;19.10;56.40
65034;DHT22;51601;51.356;12.458;2022-10-13T14:47:00;19.10;57.00
65034;DHT22;51601;51.356;12.458;2022-10-13T14:51:43;18.90;57.40
65034;DHT22;51601;51.356;12.458;2022-10-13T14:56:20;18.80;57.80
65034;DHT22;51601;51.356;12.458;2022-10-13T15:00:56;18.70;58.30
65034;DHT22;51601;51.356;12.458;2022-10-13T15:05:30;18.70;58.80
65034;DHT22;51601;51.356;12.458;2022-10-13T15:10:05;18.70;59.00
65034;DHT22;51601;51.356;12.458;2022-10-13T15:14:41;18.50;59.00
65034;DHT22;51601;51.356;12.458;2022-10-13T15:19:15;18.40;59.10
65034;DHT22;51601;51.356;12.458;2022-10-13T15:23:49;18.30;59.30
65034;DHT22;51601;51.356;12.458;2022-10-13T15:28:25;18.30;59.60
65034;DHT22;51601;51.356;12.458;2022-10-13T15:33:01;18.20;59.60
65034;DHT22;51601;51.356;12.458;2022-10-13T15:37:35;18.00;59.80
65034;DHT22;51601;51.356;12.458;2022-10-13T15:42:10;17.90;60.30
65034;DHT22;51601;51.356;12.458;2022-10-13T15:46:44;17.70;60.80
65034;DHT22;51601;51.356;12.458;2022-10-13T15:51:40;17.70;61.10
65034;DHT22;51601;51.356;12.458;2022-10-13T15:56:14;17.60;61.50
65034;DHT22;51601;51.356;12.458;2022-10-13T16:00:49;17.50;61.70
65034;DHT22;51601;51.356;12.458;2022-10-13T16:05:23;17.50;61.80
65034;DHT22;51601;51.356;12.458;2022-10-13T16:09:58;17.40;62.00
65034;DHT22;51601;51.356;12.458;2022-10-13T16:14:33;17.30;62.10
65034;DHT22;51601;51.356;12.458;2022-10-13T16:19:07;17.20;62.40
65034;DHT22;51601;51.356;12.458;2022-10-13T16:23:41;17.20;63.30
65034;DHT22;51601;51.356;12.458;2022-10-13T16:28:16;17.20;62.90
65034;DHT22;51601;51.356;12.458;2022-10-13T16:32:50;17.20;63.00
65034;DHT22;51601;51.356;12.458;2022-10-13T16:37:24;17.10;63.30
65034;DHT22;51601;51.356;12.458;2022-10-13T16:41:58;17.10;63.70
65034;DHT22;51601;51.356;12.458;2022-10-13T16:46:34;17.00;64.00
65034;DHT22;51601;51.356;12.458;2022-10-13T16:51:11;16.90;64.00
65034;DHT22;51601;51.356;12.458;2022-10-13T16:55:45;16.90;64.20
65034;DHT22;51601;51.356;12.458;2022-10-13T17:00:19;16.90;64.20
65034;DHT22;51601;51.356;12.458;2022-10-13T17:04:55;16.80;64.20
65034;DHT22;51601;51.356;12.458;2022-10-13T17:09:29;16.80;64.50
65034;DHT22;51601;51.356;12.458;2022-10-13T17:14:04;16.70;64.60
65034;DHT22;51601;51.356;12.458;2022-10-13T17:18:38;16.60;64.60
65034;DHT22;51601;51.356;12.458;2022-10-13T17:23:13;16.50;64.80
65034;DHT22;51601;51.356;12.458;2022-10-13T17:27:48;16.50;65.20
65034;DHT22;51601;51.356;12.458;2022-10-13T17:32:22;16.40;65.50
65034;DHT22;51601;51.356;12.458;2022-10-13T17:36:56;16.40;65.70
65034;DHT22;51601;51.356;12.458;2022-10-13T17:41:32;16.50;65.80
65034;DHT22;51601;51.356;12.458;2022-10-13T17:46:08;16.50;65.90
65034;DHT22;51601;51.356;12.458;2022-10-13T17:51:02;16.50;65.90
65034;DHT22;51601;51.356;12.458;2022-10-13T17:55:36;16.50;65.80
65034;DHT22;51601;51.356;12.458;2022-10-13T18:00:13;16.60;65.90
65034;DHT22;51601;51.356;12.458;2022-10-13T18:04:48;16.50;65.90
65034;DHT22;51601;51.356;12.458;2022-10-13T18:09:22;16.50;65.80
65034;DHT22;51601;51.356;12.458;2022-10-13T18:13:57;16.50;65.80
65034;DHT22;51601;51.356;12.458;2022-10-13T18:18:33;16.40;65.80
65034;DHT22;51601;51.356;12.458;2022-10-13T18:23:07;16.30;65.90
65034;DHT22;51601;51.356;12.458;2022-10-13T18:27:42;16.20;65.80
65034;DHT22;51601;51.356;12.458;2022-10-13T18:32:15;16.20;66.10
65034;DHT22;51601;51.356;12.458;2022-10-13T18:36:51;16.00;66.40
65034;DHT22;51601;51.356;12.458;2022-10-13T18:41:26;15.90;66.80
65034;DHT22;51601;51.356;12.458;2022-10-13T18:46:00;15.80;67.00
65034;DHT22;51601;51.356;12.458;2022-10-13T18:50:35;15.80;67.40
65034;DHT22;51601;51.356;12.458;2022-10-13T18:55:10;15.80;67.60
65034;DHT22;51601;51.356;12.458;2022-10-13T18:59:44;15.90;68.40
65034;DHT22;51601;51.356;12.458;2022-10-13T19:04:18;15.90;67.60
65034;DHT22;51601;51.356;12.458;2022-10-13T19:08:55;16.00;67.70
65034;DHT22;51601;51.356;12.458;2022-10-13T19:13:32;16.00;67.70
65034;DHT22;51601;51.356;12.458;2022-10-13T19:18:06;16.10;67.80
65034;DHT22;51601;51.356;12.458;2022-10-13T19:22:40;16.00;67.70
65034;DHT22;51601;51.356;12.458;2022-10-13T19:27:14;16.00;67.80
65034;DHT22;51601;51.356;12.458;2022-10-13T19:31:49;16.00;67.90
65034;DHT22;51601;51.356;12.458;2022-10-13T19:36:25;15.90;68.00
65034;DHT22;51601;51.356;12.458;2022-10-13T19:41:05;15.80;68.10
65034;DHT22;51601;51.356;12.458;2022-10-13T19:45:46;15.70;68.40
65034;DHT22;51601;51.356;12.458;2022-10-13T19:50:23;15.50;68.90
65034;DHT22;51601;51.356;12.458;2022-10-13T19:54:57;15.40;69.20
65034;DHT22;51601;51.356;12.458;2022-10-13T19:59:32;15.30;69.40
65034;DHT22;51601;51.356;12.458;2022-10-13T20:04:07;15.20;69.70
65034;DHT22;51601;51.356;12.458;2022-10-13T20:08:43;15.00;70.40
65034;DHT22;51601;51.356;12.458;2022-10-13T20:13:18;14.90;71.20
65034;DHT22;51601;51.356;12.458;2022-10-13T20:17:52;14.70;71.60
65034;DHT22;51601;51.356;12.458;2022-10-13T20:22:26;14.60;72.10
65034;DHT22;51601;51.356;12.458;2022-10-13T20:27:02;14.40;72.70
65034;DHT22;51601;51.356;12.458;2022-10-13T20:31:36;14.40;73.70
65034;DHT22;51601;51.356;12.458;2022-10-13T20:36:12;14.30;74.50
65034;DHT22;51601;51.356;12.458;2022-10-13T20:40:46;14.20;74.60
65034;DHT22;51601;51.356;12.458;2022-10-13T20:45:22;14.20;74.90
65034;DHT22;51601;51.356;12.458;2022-10-13T20:49:56;14.10;75.30
65034;DHT22;51601;51.356;12.458;2022-10-13T20:54:30;14.00;75.50
65034;DHT22;51601;51.356;12.458;2022-10-13T20:59:06;14.00;75.70
65034;DHT22;51601;51.356;12.458;2022-10-13T21:03:45;13.90;76.50
65034;DHT22;51601;51.356;12.458;2022-10-13T21:08:21;13.90;77.40
65034;DHT22;51601;51.356;12.458;2022-10-13T21:12:55;13.90;77.60
65034;DHT22;51601;51.356;12.458;2022-10-13T21:17:31;13.90;77.90
65034;DHT22;51601;51.356;12.458;2022-10-13T21:22:07;13.90;78.20
65034;DHT22;51601;51.356;12.458;2022-10-13T21:26:41;13.90;78.60
65034;DHT22;51601;51.356;12.458;2022-10-13T21:31:20;14.00;78.80
65034;DHT22;51601;51.356;12.458;2022-10-13T21:35:54;13.90;79.90
65034;DHT22;51601;51.356;12.458;2022-10-13T21:40:30;13.90;81.30
65034;DHT22;51601;51.356;12.458;2022-10-13T21:45:05;13.90;81.80
65034;DHT22;51601;51.356;12.458;2022-10-13T21:49:39;13.90;82.20
65034;DHT22;51601;51.356;12.458;2022-10-13T21:54:13;13.90;83.20
65034;DHT22;51601;51.356;12.458;2022-10-13T21:58:49;13.80;83.00
65034;DHT22;51601;51.356;12.458;2022-10-13T22:03:23;13.80;83.40
65034;DHT22;51601;51.356;12.458;2022-10-13T22:07:57;13.90;83.70
65034;DHT22;51601;51.356;12.458;2022-10-13T22:12:31;13.80;83.50
65034;DHT22;51601;51.356;12.458;2022-10-13T22:17:08;13.90;83.30
65034;DHT22;51601;51.356;12.458;2022-10-13T22:21:44;13.90;83.10
65034;DHT22;51601;51.356;12.458;2022-10-13T22:26:19;13.90;82.90
65034;DHT22;51601;51.356;12.458;2022-10-13T22:30:54;14.00;83.10
65034;DHT22;51601;51.356;12.458;2022-10-13T22:35:31;14.00;83.40
65034;DHT22;51601;51.356;12.458;2022-10-13T22:40:06;14.00;83.60
65034;DHT22;51601;51.356;12.458;2022-10-13T22:44:41;14.00;83.40
65034;DHT22;51601;51.356;12.458;2022-10-13T22:49:15;14.10;83.30
65034;DHT22;51601;51.356;12.458;2022-10-13T22:53:50;14.10;83.00
65034;DHT22;51601;51.356;12.458;2022-10-13T22:58:25;14.10;82.90
65034;DHT22;51601;51.356;12.458;2022-10-13T23:03:00;14.10;82.80
65034;DHT22;51601;51.356;12.458;2022-10-13T23:07:34;14.10;82.70
65034;DHT22;51601;51.356;12.458;2022-10-13T23:12:09;14.20;82.50
65034;DHT22;51601;51.356;12.458;2022-10-13T23:16:43;14.20;82.30
65034;DHT22;51601;51.356;12.458;2022-10-13T23:21:19;14.20;82.00
65034;DHT22;51601;51.356;12.458;2022-10-13T23:25:53;14.20;82.00
65034;DHT22;51601;51.356;12.458;2022-10-13T23:30:28;14.20;81.90
65034;DHT22;51601;51.356;12.458;2022-10-13T23:35:03;14.10;81.70
65034;DHT22;51601;51.356;12.458;2022-10-13T23:39:37;14.10;81.60
65034;DHT22;51601;51.356;12.458;2022-10-13T23:44:10;14.10;81.60
65034;DHT22;51601;51.356;12.458;2022-10-13T23:48:48;14.10;81.90
65034;DHT22;51601;51.356;12.458;2022-10-13T23:53:25;14.10;81.90
65034;DHT22;51601;51.356;12.458;2022-10-13T23:57:59;14.10;82.20
